Boryslav — ENLB — position and weather

sailwx.info

Track history (hours):
 
Tides and Currents Weather Stations Pressure Air Temp Water Temp Dewpoint Dewpoint Depression Visibility Wind Speed Wind Dir Waves Ship Positions

Boryslav

Last reported at 2017-Mar-28 22:32 UTC. Time now 2017-Mar-28 23:32 UTC.
Position N 47°35' E 035°03'.

Length 86 m; draft 1.9 m.

MMSI: 272088700.

Date/timePositionNaut miles runAvg speedWind from/ knotsBaromVisibWave heightAir tempDewpointWater temp
2017-Mar-28 22:32N 47°35' E 035°03'0 0.0
2017-Mar-28 21:32N 47°35' E 035°03'1 0.1
2017-Mar-28 12:22N 47°37' E 035°02'0 0.1
2017-Mar-28 09:33N 47°36' E 035°02'1 0.6
2017-Mar-28 08:10N 47°35' E 035°03'0 0.0
2017-Mar-28 05:33N 47°35' E 035°03'1 0.5
2017-Mar-28 04:33N 47°36' E 035°03'0 0.4
2017-Mar-28 03:33N 47°36' E 035°02'0 0.0
2017-Mar-28 02:29N 47°36' E 035°02'0 0.0
2017-Mar-28 01:33N 47°36' E 035°02'0 0.5
2017-Mar-28 00:33N 47°36' E 035°03'141 4.3
2017-Mar-26 15:33N 46°33' E 031°58'6 5.8
2017-Mar-26 14:32N 46°35' E 031°50'  
2017-Mar-20 10:15N 43°48' E 023°01'5 6.6
2017-Mar-20 09:26N 43°50' E 022°54'5 5.7
2017-Mar-20 08:33N 43°54' E 022°51'6 6.0
2017-Mar-20 07:33N 43°60' E 022°54'7 6.5
2017-Mar-20 06:33N 44°02' E 023°02'5 4.9
2017-Mar-20 05:33N 44°06' E 022°57'6 6.3
2017-Mar-20 04:33N 44°09' E 022°50'6 6.4
2017-Mar-20 03:33N 44°12' E 022°42'6 5.6
2017-Mar-20 02:33N 44°17' E 022°39'4 3.8
2017-Mar-20 01:33N 44°18' E 022°34'2 2.3
2017-Mar-20 00:33N 44°20' E 022°32'0 0.0
2017-Mar-19 23:33N 44°20' E 022°32'0 0.0
2017-Mar-19 22:33N 44°20' E 022°32'0 0.0
2017-Mar-19 21:33N 44°20' E 022°32'0 0.0
2017-Mar-19 20:33N 44°20' E 022°32'0 0.0
2017-Mar-19 19:34N 44°20' E 022°32'0 0.0
2017-Mar-19 18:34N 44°20' E 022°32'0 0.0
2017-Mar-19 17:33N 44°20' E 022°32'0 0.0
2017-Mar-19 16:33N 44°20' E 022°32'0 0.0
2017-Mar-19 15:34N 44°20' E 022°32'0 0.0
2017-Mar-19 14:33N 44°20' E 022°32'0 0.1
2017-Mar-19 13:33N 44°20' E 022°32'5 5.3
2017-Mar-19 12:33N 44°25' E 022°30'4 3.6
2017-Mar-19 11:33N 44°28' E 022°31'5 5.5
2017-Mar-19 10:33N 44°33' E 022°36'5 5.4
2017-Mar-19 09:33N 44°31' E 022°43'5 4.6
2017-Mar-19 08:33N 44°36' E 022°43'6 6.3
2017-Mar-19 07:33N 44°38' E 022°35'3 3.3
2017-Mar-19 06:33N 44°40' E 022°32'0 0.2
2017-Mar-19 05:33N 44°40' E 022°31'2 2.1
2017-Mar-19 04:33N 44°42' E 022°29'0 0.0
2017-Mar-19 03:33N 44°42' E 022°29'0 0.0
2017-Mar-19 02:33N 44°42' E 022°29'0 0.0
2017-Mar-19 01:33N 44°42' E 022°29'0 0.0
2017-Mar-19 00:33N 44°42' E 022°29'0 0.0
2017-Mar-18 23:34N 44°42' E 022°29'0 0.0
2017-Mar-18 22:33N 44°42' E 022°29'  
Track history (hours):
 
Tides and Currents Weather Stations Pressure Air Temp Water Temp Dewpoint Dewpoint Depression Visibility Wind Speed Wind Dir Waves Ship Positions

Boryslav

Last reported at 2017-Mar-28 22:32 UTC. Time now 2017-Mar-28 23:32 UTC.
Position N 47°35' E 035°03'.

Length 86 m; draft 1.9 m.

MMSI: 272088700.

Date/timePositionNaut miles runAvg speedWind from/ knotsBaromVisibWave heightAir tempDewpointWater temp
2017-Mar-28 22:32N 47°35' E 035°03'0 0.0
2017-Mar-28 21:32N 47°35' E 035°03'1 0.1
2017-Mar-28 12:22N 47°37' E 035°02'0 0.1
2017-Mar-28 09:33N 47°36' E 035°02'1 0.6
2017-Mar-28 08:10N 47°35' E 035°03'0 0.0
2017-Mar-28 05:33N 47°35' E 035°03'1 0.5
2017-Mar-28 04:33N 47°36' E 035°03'0 0.4
2017-Mar-28 03:33N 47°36' E 035°02'0 0.0
2017-Mar-28 02:29N 47°36' E 035°02'0 0.0
2017-Mar-28 01:33N 47°36' E 035°02'0 0.5
2017-Mar-28 00:33N 47°36' E 035°03'141 4.3
2017-Mar-26 15:33N 46°33' E 031°58'6 5.8
2017-Mar-26 14:32N 46°35' E 031°50'  
2017-Mar-20 10:15N 43°48' E 023°01'5 6.6
2017-Mar-20 09:26N 43°50' E 022°54'5 5.7
2017-Mar-20 08:33N 43°54' E 022°51'6 6.0
2017-Mar-20 07:33N 43°60' E 022°54'7 6.5
2017-Mar-20 06:33N 44°02' E 023°02'5 4.9
2017-Mar-20 05:33N 44°06' E 022°57'6 6.3
2017-Mar-20 04:33N 44°09' E 022°50'6 6.4
2017-Mar-20 03:33N 44°12' E 022°42'6 5.6
2017-Mar-20 02:33N 44°17' E 022°39'4 3.8
2017-Mar-20 01:33N 44°18' E 022°34'2 2.3
2017-Mar-20 00:33N 44°20' E 022°32'0 0.0
2017-Mar-19 23:33N 44°20' E 022°32'0 0.0
2017-Mar-19 22:33N 44°20' E 022°32'0 0.0
2017-Mar-19 21:33N 44°20' E 022°32'0 0.0
2017-Mar-19 20:33N 44°20' E 022°32'0 0.0
2017-Mar-19 19:34N 44°20' E 022°32'0 0.0
2017-Mar-19 18:34N 44°20' E 022°32'0 0.0
2017-Mar-19 17:33N 44°20' E 022°32'0 0.0
2017-Mar-19 16:33N 44°20' E 022°32'0 0.0
2017-Mar-19 15:34N 44°20' E 022°32'0 0.0
2017-Mar-19 14:33N 44°20' E 022°32'0 0.1
2017-Mar-19 13:33N 44°20' E 022°32'5 5.3
2017-Mar-19 12:33N 44°25' E 022°30'4 3.6
2017-Mar-19 11:33N 44°28' E 022°31'5 5.5
2017-Mar-19 10:33N 44°33' E 022°36'5 5.4
2017-Mar-19 09:33N 44°31' E 022°43'5 4.6
2017-Mar-19 08:33N 44°36' E 022°43'6 6.3
2017-Mar-19 07:33N 44°38' E 022°35'3 3.3
2017-Mar-19 06:33N 44°40' E 022°32'0 0.2
2017-Mar-19 05:33N 44°40' E 022°31'2 2.1
2017-Mar-19 04:33N 44°42' E 022°29'0 0.0
2017-Mar-19 03:33N 44°42' E 022°29'0 0.0
2017-Mar-19 02:33N 44°42' E 022°29'0 0.0
2017-Mar-19 01:33N 44°42' E 022°29'0 0.0
2017-Mar-19 00:33N 44°42' E 022°29'0 0.0
2017-Mar-18 23:34N 44°42' E 022°29'0 0.0
2017-Mar-18 22:33N 44°42' E 022°29'  

Dump ship's entire track history